sensor_id;sensor_type;location;lat;lon;timestamp;temperature;humidity
32293;DHT22;43233;48.608;8.838;2024-02-28T00:01:37;7.50;65.70
32293;DHT22;43233;48.608;8.838;2024-02-28T00:04:03;7.50;65.80
32293;DHT22;43233;48.608;8.838;2024-02-28T00:06:28;7.50;65.80
32293;DHT22;43233;48.608;8.838;2024-02-28T00:08:54;7.50;65.80
32293;DHT22;43233;48.608;8.838;2024-02-28T00:11:20;7.40;65.70
32293;DHT22;43233;48.608;8.838;2024-02-28T00:13:46;7.40;65.80
32293;DHT22;43233;48.608;8.838;2024-02-28T00:16:12;7.40;65.90
32293;DHT22;43233;48.608;8.838;2024-02-28T00:18:37;7.40;65.90
32293;DHT22;43233;48.608;8.838;2024-02-28T00:21:03;7.40;65.90
32293;DHT22;43233;48.608;8.838;2024-02-28T00:23:29;7.40;66.10
32293;DHT22;43233;48.608;8.838;2024-02-28T00:25:55;7.40;66.10
32293;DHT22;43233;48.608;8.838;2024-02-28T00:28:21;7.40;66.10
32293;DHT22;43233;48.608;8.838;2024-02-28T00:30:46;7.40;66.10
32293;DHT22;43233;48.608;8.838;2024-02-28T00:33:12;7.40;66.30
32293;DHT22;43233;48.608;8.838;2024-02-28T00:35:39;7.30;66.30
32293;DHT22;43233;48.608;8.838;2024-02-28T00:38:05;7.30;66.20
32293;DHT22;43233;48.608;8.838;2024-02-28T00:40:31;7.30;66.30
32293;DHT22;43233;48.608;8.838;2024-02-28T00:42:57;7.30;66.50
32293;DHT22;43233;48.608;8.838;2024-02-28T00:45:23;7.30;66.20
32293;DHT22;43233;48.608;8.838;2024-02-28T00:47:49;7.20;66.30
32293;DHT22;43233;48.608;8.838;2024-02-28T00:50:15;7.20;66.50
32293;DHT22;43233;48.608;8.838;2024-02-28T00:52:40;7.20;66.70
32293;DHT22;43233;48.608;8.838;2024-02-28T00:55:07;7.20;66.80
32293;DHT22;43233;48.608;8.838;2024-02-28T00:57:32;7.20;66.90
32293;DHT22;43233;48.608;8.838;2024-02-28T00:59:58;7.20;67.00
32293;DHT22;43233;48.608;8.838;2024-02-28T01:02:24;7.20;67.00
32293;DHT22;43233;48.608;8.838;2024-02-28T01:04:50;7.20;67.00
32293;DHT22;43233;48.608;8.838;2024-02-28T01:07:15;7.20;66.90
32293;DHT22;43233;48.608;8.838;2024-02-28T01:09:41;7.20;67.00
32293;DHT22;43233;48.608;8.838;2024-02-28T01:12:07;7.20;66.90
32293;DHT22;43233;48.608;8.838;2024-02-28T01:14:33;7.20;67.00
32293;DHT22;43233;48.608;8.838;2024-02-28T01:16:58;7.20;67.00
32293;DHT22;43233;48.608;8.838;2024-02-28T01:19:24;7.20;67.00
32293;DHT22;43233;48.608;8.838;2024-02-28T01:21:50;7.20;67.00
32293;DHT22;43233;48.608;8.838;2024-02-28T01:24:15;7.20;67.00
32293;DHT22;43233;48.608;8.838;2024-02-28T01:26:41;7.20;66.80
32293;DHT22;43233;48.608;8.838;2024-02-28T01:29:07;7.20;66.90
32293;DHT22;43233;48.608;8.838;2024-02-28T01:31:32;7.10;67.00
32293;DHT22;43233;48.608;8.838;2024-02-28T01:33:58;7.10;66.90
32293;DHT22;43233;48.608;8.838;2024-02-28T01:36:23;7.10;67.00
32293;DHT22;43233;48.608;8.838;2024-02-28T01:38:49;7.10;67.20
32293;DHT22;43233;48.608;8.838;2024-02-28T01:41:15;7.10;67.30
32293;DHT22;43233;48.608;8.838;2024-02-28T01:43:40;7.10;67.50
32293;DHT22;43233;48.608;8.838;2024-02-28T01:46:29;7.10;67.60
32293;DHT22;43233;48.608;8.838;2024-02-28T01:48:57;7.10;67.80
32293;DHT22;43233;48.608;8.838;2024-02-28T01:51:24;7.10;67.80
32293;DHT22;43233;48.608;8.838;2024-02-28T01:53:55;7.10;67.70
32293;DHT22;43233;48.608;8.838;2024-02-28T01:56:23;7.10;67.70
32293;DHT22;43233;48.608;8.838;2024-02-28T01:58:50;7.10;67.60
32293;DHT22;43233;48.608;8.838;2024-02-28T02:01:17;7.00;67.70
32293;DHT22;43233;48.608;8.838;2024-02-28T02:03:43;7.10;67.80
32293;DHT22;43233;48.608;8.838;2024-02-28T02:06:09;7.10;67.80
32293;DHT22;43233;48.608;8.838;2024-02-28T02:08:36;7.10;67.90
32293;DHT22;43233;48.608;8.838;2024-02-28T02:11:02;7.10;68.10
32293;DHT22;43233;48.608;8.838;2024-02-28T02:13:28;7.10;68.30
32293;DHT22;43233;48.608;8.838;2024-02-28T02:15:54;7.10;68.40
32293;DHT22;43233;48.608;8.838;2024-02-28T02:18:19;7.00;68.20
32293;DHT22;43233;48.608;8.838;2024-02-28T02:20:50;7.10;68.20
32293;DHT22;43233;48.608;8.838;2024-02-28T02:23:16;7.10;68.10
32293;DHT22;43233;48.608;8.838;2024-02-28T02:25:48;7.10;67.90
32293;DHT22;43233;48.608;8.838;2024-02-28T02:28:14;7.10;68.00
32293;DHT22;43233;48.608;8.838;2024-02-28T02:30:41;7.00;68.00
32293;DHT22;43233;48.608;8.838;2024-02-28T02:33:10;7.00;68.10
32293;DHT22;43233;48.608;8.838;2024-02-28T02:35:36;7.00;68.20
32293;DHT22;43233;48.608;8.838;2024-02-28T02:38:02;7.00;68.20
32293;DHT22;43233;48.608;8.838;2024-02-28T02:40:28;7.00;68.20
32293;DHT22;43233;48.608;8.838;2024-02-28T02:42:53;6.90;69.10
32293;DHT22;43233;48.608;8.838;2024-02-28T02:45:19;6.90;68.20
32293;DHT22;43233;48.608;8.838;2024-02-28T02:47:45;6.90;68.20
32293;DHT22;43233;48.608;8.838;2024-02-28T02:50:10;6.90;68.30
32293;DHT22;43233;48.608;8.838;2024-02-28T02:52:36;6.90;68.40
32293;DHT22;43233;48.608;8.838;2024-02-28T02:55:02;6.90;68.50
32293;DHT22;43233;48.608;8.838;2024-02-28T02:57:27;6.90;68.50
32293;DHT22;43233;48.608;8.838;2024-02-28T02:59:53;6.90;68.60
32293;DHT22;43233;48.608;8.838;2024-02-28T03:02:19;6.90;68.70
32293;DHT22;43233;48.608;8.838;2024-02-28T03:04:44;6.90;68.50
32293;DHT22;43233;48.608;8.838;2024-02-28T03:07:10;6.90;68.50
32293;DHT22;43233;48.608;8.838;2024-02-28T03:09:35;6.90;68.50
32293;DHT22;43233;48.608;8.838;2024-02-28T03:12:01;6.90;68.30
32293;DHT22;43233;48.608;8.838;2024-02-28T03:14:27;6.80;68.30
32293;DHT22;43233;48.608;8.838;2024-02-28T03:16:53;6.80;68.30
32293;DHT22;43233;48.608;8.838;2024-02-28T03:19:19;6.80;68.20
32293;DHT22;43233;48.608;8.838;2024-02-28T03:21:45;6.80;68.40
32293;DHT22;43233;48.608;8.838;2024-02-28T03:24:10;6.80;68.30
32293;DHT22;43233;48.608;8.838;2024-02-28T03:26:36;6.80;68.30
32293;DHT22;43233;48.608;8.838;2024-02-28T03:29:02;6.80;68.40
32293;DHT22;43233;48.608;8.838;2024-02-28T03:31:28;6.80;68.40
32293;DHT22;43233;48.608;8.838;2024-02-28T03:33:53;6.80;68.40
32293;DHT22;43233;48.608;8.838;2024-02-28T03:36:19;6.80;68.50
32293;DHT22;43233;48.608;8.838;2024-02-28T03:38:45;6.80;68.70
32293;DHT22;43233;48.608;8.838;2024-02-28T03:41:10;6.80;68.70
32293;DHT22;43233;48.608;8.838;2024-02-28T03:43:36;6.80;68.50
32293;DHT22;43233;48.608;8.838;2024-02-28T03:46:01;6.80;68.70
32293;DHT22;43233;48.608;8.838;2024-02-28T03:48:27;6.70;68.50
32293;DHT22;43233;48.608;8.838;2024-02-28T03:50:53;6.70;68.50
32293;DHT22;43233;48.608;8.838;2024-02-28T03:53:19;6.70;68.70
32293;DHT22;43233;48.608;8.838;2024-02-28T03:55:44;6.70;69.50
32293;DHT22;43233;48.608;8.838;2024-02-28T03:58:10;6.70;68.60
32293;DHT22;43233;48.608;8.838;2024-02-28T04:00:36;6.70;68.70
32293;DHT22;43233;48.608;8.838;2024-02-28T04:03:03;6.70;68.80
32293;DHT22;43233;48.608;8.838;2024-02-28T04:05:29;6.70;68.80
32293;DHT22;43233;48.608;8.838;2024-02-28T04:07:55;6.70;68.70
32293;DHT22;43233;48.608;8.838;2024-02-28T04:10:20;6.70;68.80
32293;DHT22;43233;48.608;8.838;2024-02-28T04:12:46;6.70;68.90
32293;DHT22;43233;48.608;8.838;2024-02-28T04:15:12;6.70;68.80
32293;DHT22;43233;48.608;8.838;2024-02-28T04:17:39;6.60;68.70
32293;DHT22;43233;48.608;8.838;2024-02-28T04:20:11;6.70;68.70
32293;DHT22;43233;48.608;8.838;2024-02-28T04:22:37;6.60;68.10
32293;DHT22;43233;48.608;8.838;2024-02-28T04:25:07;6.60;68.00
32293;DHT22;43233;48.608;8.838;2024-02-28T04:27:33;6.60;67.90
32293;DHT22;43233;48.608;8.838;2024-02-28T04:29:59;6.60;68.20
32293;DHT22;43233;48.608;8.838;2024-02-28T04:32:25;6.60;68.20
32293;DHT22;43233;48.608;8.838;2024-02-28T04:34:51;6.50;68.40
32293;DHT22;43233;48.608;8.838;2024-02-28T04:37:17;6.60;68.30
32293;DHT22;43233;48.608;8.838;2024-02-28T04:39:42;6.50;68.10
32293;DHT22;43233;48.608;8.838;2024-02-28T04:42:08;6.60;68.00
32293;DHT22;43233;48.608;8.838;2024-02-28T04:44:34;6.50;68.00
32293;DHT22;43233;48.608;8.838;2024-02-28T04:46:59;6.50;67.80
32293;DHT22;43233;48.608;8.838;2024-02-28T04:49:25;6.50;67.70
32293;DHT22;43233;48.608;8.838;2024-02-28T04:51:51;6.50;67.60
32293;DHT22;43233;48.608;8.838;2024-02-28T04:54:17;6.50;67.50
32293;DHT22;43233;48.608;8.838;2024-02-28T04:56:42;6.50;67.30
32293;DHT22;43233;48.608;8.838;2024-02-28T04:59:09;6.50;67.50
32293;DHT22;43233;48.608;8.838;2024-02-28T05:01:36;6.50;67.50
32293;DHT22;43233;48.608;8.838;2024-02-28T05:04:05;6.50;67.50
32293;DHT22;43233;48.608;8.838;2024-02-28T05:06:31;6.50;67.40
32293;DHT22;43233;48.608;8.838;2024-02-28T05:08:57;6.50;67.30
32293;DHT22;43233;48.608;8.838;2024-02-28T05:11:22;6.40;67.10
32293;DHT22;43233;48.608;8.838;2024-02-28T05:13:48;6.40;67.00
32293;DHT22;43233;48.608;8.838;2024-02-28T05:16:15;6.40;67.10
32293;DHT22;43233;48.608;8.838;2024-02-28T05:18:41;6.50;66.90
32293;DHT22;43233;48.608;8.838;2024-02-28T05:21:06;6.40;67.00
32293;DHT22;43233;48.608;8.838;2024-02-28T05:23:32;6.40;66.90
32293;DHT22;43233;48.608;8.838;2024-02-28T05:25:59;6.40;67.00
32293;DHT22;43233;48.608;8.838;2024-02-28T05:28:29;6.40;66.90
32293;DHT22;43233;48.608;8.838;2024-02-28T05:30:55;6.30;66.90
32293;DHT22;43233;48.608;8.838;2024-02-28T05:33:21;6.30;67.00
32293;DHT22;43233;48.608;8.838;2024-02-28T05:35:47;6.40;66.90
32293;DHT22;43233;48.608;8.838;2024-02-28T05:38:12;6.30;66.90
32293;DHT22;43233;48.608;8.838;2024-02-28T05:40:38;6.30;66.70
32293;DHT22;43233;48.608;8.838;2024-02-28T05:43:04;6.30;66.80
32293;DHT22;43233;48.608;8.838;2024-02-28T05:45:30;6.30;66.90
32293;DHT22;43233;48.608;8.838;2024-02-28T05:47:55;6.30;66.80
32293;DHT22;43233;48.608;8.838;2024-02-28T05:50:21;6.30;66.70
32293;DHT22;43233;48.608;8.838;2024-02-28T05:52:46;6.30;66.70
32293;DHT22;43233;48.608;8.838;2024-02-28T05:55:12;6.30;66.70
32293;DHT22;43233;48.608;8.838;2024-02-28T05:57:38;6.30;66.60
32293;DHT22;43233;48.608;8.838;2024-02-28T06:00:04;6.30;66.70
32293;DHT22;43233;48.608;8.838;2024-02-28T06:02:36;6.20;66.10
32293;DHT22;43233;48.608;8.838;2024-02-28T06:05:02;6.30;66.10
32293;DHT22;43233;48.608;8.838;2024-02-28T06:07:28;6.30;66.10
32293;DHT22;43233;48.608;8.838;2024-02-28T06:09:54;6.20;66.00
32293;DHT22;43233;48.608;8.838;2024-02-28T06:12:19;6.30;66.00
32293;DHT22;43233;48.608;8.838;2024-02-28T06:14:45;6.30;65.90
32293;DHT22;43233;48.608;8.838;2024-02-28T06:17:10;6.30;65.70
32293;DHT22;43233;48.608;8.838;2024-02-28T06:19:36;6.30;65.80
32293;DHT22;43233;48.608;8.838;2024-02-28T06:22:02;6.30;65.60
32293;DHT22;43233;48.608;8.838;2024-02-28T06:24:27;6.20;65.70
32293;DHT22;43233;48.608;8.838;2024-02-28T06:26:53;6.20;65.80
32293;DHT22;43233;48.608;8.838;2024-02-28T06:29:18;6.20;65.80
32293;DHT22;43233;48.608;8.838;2024-02-28T06:31:50;6.30;66.10
32293;DHT22;43233;48.608;8.838;2024-02-28T06:34:16;6.20;65.70
32293;DHT22;43233;48.608;8.838;2024-02-28T06:36:41;6.20;65.20
32293;DHT22;43233;48.608;8.838;2024-02-28T06:39:07;6.20;65.20
32293;DHT22;43233;48.608;8.838;2024-02-28T06:41:32;6.20;65.00
32293;DHT22;43233;48.608;8.838;2024-02-28T06:43:59;6.20;65.00
32293;DHT22;43233;48.608;8.838;2024-02-28T06:46:24;6.20;64.70
32293;DHT22;43233;48.608;8.838;2024-02-28T06:48:50;6.30;64.90
32293;DHT22;43233;48.608;8.838;2024-02-28T06:51:16;6.20;64.70
32293;DHT22;43233;48.608;8.838;2024-02-28T06:53:42;6.20;64.70
32293;DHT22;43233;48.608;8.838;2024-02-28T06:56:08;6.20;64.70
32293;DHT22;43233;48.608;8.838;2024-02-28T06:58:34;6.20;64.40
32293;DHT22;43233;48.608;8.838;2024-02-28T07:01:00;6.20;64.30
32293;DHT22;43233;48.608;8.838;2024-02-28T07:03:25;6.20;64.20
32293;DHT22;43233;48.608;8.838;2024-02-28T07:05:51;6.20;64.20
32293;DHT22;43233;48.608;8.838;2024-02-28T07:08:18;6.20;64.20
32293;DHT22;43233;48.608;8.838;2024-02-28T07:10:44;6.20;63.10
32293;DHT22;43233;48.608;8.838;2024-02-28T07:13:13;6.20;63.20
32293;DHT22;43233;48.608;8.838;2024-02-28T07:15:38;6.20;63.40
32293;DHT22;43233;48.608;8.838;2024-02-28T07:18:05;6.20;63.70
32293;DHT22;43233;48.608;8.838;2024-02-28T07:20:31;6.20;64.20
32293;DHT22;43233;48.608;8.838;2024-02-28T07:22:56;6.20;64.50
32293;DHT22;43233;48.608;8.838;2024-02-28T07:25:22;6.20;64.50
32293;DHT22;43233;48.608;8.838;2024-02-28T07:27:48;6.20;64.30
32293;DHT22;43233;48.608;8.838;2024-02-28T07:30:13;6.20;64.40
32293;DHT22;43233;48.608;8.838;2024-02-28T07:32:39;6.20;64.20
32293;DHT22;43233;48.608;8.838;2024-02-28T07:35:05;6.20;64.00
32293;DHT22;43233;48.608;8.838;2024-02-28T07:37:30;6.20;64.10
32293;DHT22;43233;48.608;8.838;2024-02-28T07:39:56;6.20;64.20
32293;DHT22;43233;48.608;8.838;2024-02-28T07:42:21;6.20;64.40
32293;DHT22;43233;48.608;8.838;2024-02-28T07:44:47;6.20;64.80
32293;DHT22;43233;48.608;8.838;2024-02-28T07:47:14;6.30;65.10
32293;DHT22;43233;48.608;8.838;2024-02-28T07:49:40;6.30;65.00
32293;DHT22;43233;48.608;8.838;2024-02-28T07:52:06;6.30;65.20
32293;DHT22;43233;48.608;8.838;2024-02-28T07:54:31;6.30;65.00
32293;DHT22;43233;48.608;8.838;2024-02-28T07:56:57;6.40;64.80
32293;DHT22;43233;48.608;8.838;2024-02-28T07:59:22;6.40;64.60
32293;DHT22;43233;48.608;8.838;2024-02-28T08:01:48;6.40;64.60
32293;DHT22;43233;48.608;8.838;2024-02-28T08:04:14;6.50;64.60
32293;DHT22;43233;48.608;8.838;2024-02-28T08:06:40;6.50;64.30
32293;DHT22;43233;48.608;8.838;2024-02-28T08:09:06;6.50;64.30
32293;DHT22;43233;48.608;8.838;2024-02-28T08:11:32;6.50;64.00
32293;DHT22;43233;48.608;8.838;2024-02-28T08:13:58;6.60;63.60
32293;DHT22;43233;48.608;8.838;2024-02-28T08:16:24;6.60;62.50
32293;DHT22;43233;48.608;8.838;2024-02-28T08:18:49;6.60;61.60
32293;DHT22;43233;48.608;8.838;2024-02-28T08:21:15;6.60;61.70
32293;DHT22;43233;48.608;8.838;2024-02-28T08:23:40;6.60;62.00
32293;DHT22;43233;48.608;8.838;2024-02-28T08:26:06;6.70;62.00
32293;DHT22;43233;48.608;8.838;2024-02-28T08:28:32;6.60;61.40
32293;DHT22;43233;48.608;8.838;2024-02-28T08:30:58;6.70;61.30
32293;DHT22;43233;48.608;8.838;2024-02-28T08:33:24;6.60;61.10
32293;DHT22;43233;48.608;8.838;2024-02-28T08:35:49;6.60;60.70
32293;DHT22;43233;48.608;8.838;2024-02-28T08:38:16;6.60;61.50
32293;DHT22;43233;48.608;8.838;2024-02-28T08:40:42;6.60;61.00
32293;DHT22;43233;48.608;8.838;2024-02-28T08:43:08;6.60;60.00
32293;DHT22;43233;48.608;8.838;2024-02-28T08:45:33;6.60;59.10
32293;DHT22;43233;48.608;8.838;2024-02-28T08:47:59;6.60;59.50
32293;DHT22;43233;48.608;8.838;2024-02-28T08:50:27;6.60;59.10
32293;DHT22;43233;48.608;8.838;2024-02-28T08:52:53;6.60;58.40
32293;DHT22;43233;48.608;8.838;2024-02-28T08:55:18;6.60;59.00
32293;DHT22;43233;48.608;8.838;2024-02-28T08:57:45;6.50;59.50
32293;DHT22;43233;48.608;8.838;2024-02-28T09:00:11;6.50;60.10
32293;DHT22;43233;48.608;8.838;2024-02-28T09:02:37;6.50;60.50
32293;DHT22;43233;48.608;8.838;2024-02-28T09:05:04;6.60;60.20
32293;DHT22;43233;48.608;8.838;2024-02-28T09:07:29;6.60;60.00
32293;DHT22;43233;48.608;8.838;2024-02-28T09:09:55;6.60;59.60
32293;DHT22;43233;48.608;8.838;2024-02-28T09:12:21;6.70;59.60
32293;DHT22;43233;48.608;8.838;2024-02-28T09:14:46;6.80;59.40
32293;DHT22;43233;48.608;8.838;2024-02-28T09:17:14;6.80;59.20
32293;DHT22;43233;48.608;8.838;2024-02-28T09:19:40;6.80;58.90
32293;DHT22;43233;48.608;8.838;2024-02-28T09:22:05;6.90;58.80
32293;DHT22;43233;48.608;8.838;2024-02-28T09:24:31;6.90;58.60
32293;DHT22;43233;48.608;8.838;2024-02-28T09:26:57;6.90;58.50
32293;DHT22;43233;48.608;8.838;2024-02-28T09:29:23;6.90;58.70
32293;DHT22;43233;48.608;8.838;2024-02-28T09:31:48;6.90;58.50
32293;DHT22;43233;48.608;8.838;2024-02-28T09:34:14;6.90;58.70
32293;DHT22;43233;48.608;8.838;2024-02-28T09:36:41;6.90;58.50
32293;DHT22;43233;48.608;8.838;2024-02-28T09:39:07;7.00;58.40
32293;DHT22;43233;48.608;8.838;2024-02-28T09:41:33;6.90;58.70
32293;DHT22;43233;48.608;8.838;2024-02-28T09:44:00;7.00;58.60
32293;DHT22;43233;48.608;8.838;2024-02-28T09:46:27;7.00;57.80
32293;DHT22;43233;48.608;8.838;2024-02-28T09:48:55;7.00;57.20
32293;DHT22;43233;48.608;8.838;2024-02-28T09:51:21;7.00;57.30
32293;DHT22;43233;48.608;8.838;2024-02-28T09:53:48;7.00;56.60
32293;DHT22;43233;48.608;8.838;2024-02-28T09:56:15;7.00;56.60
32293;DHT22;43233;48.608;8.838;2024-02-28T09:58:42;7.00;57.10
32293;DHT22;43233;48.608;8.838;2024-02-28T10:01:08;7.00;56.20
32293;DHT22;43233;48.608;8.838;2024-02-28T10:03:37;7.00;56.40
32293;DHT22;43233;48.608;8.838;2024-02-28T10:06:03;7.00;56.50
32293;DHT22;43233;48.608;8.838;2024-02-28T10:08:29;7.00;55.60
32293;DHT22;43233;48.608;8.838;2024-02-28T10:10:55;7.00;55.00
32293;DHT22;43233;48.608;8.838;2024-02-28T10:13:21;6.90;55.20
32293;DHT22;43233;48.608;8.838;2024-02-28T10:15:50;6.90;55.90
32293;DHT22;43233;48.608;8.838;2024-02-28T10:18:16;6.90;56.30
32293;DHT22;43233;48.608;8.838;2024-02-28T10:20:42;6.90;57.30
32293;DHT22;43233;48.608;8.838;2024-02-28T10:23:08;7.00;56.60
32293;DHT22;43233;48.608;8.838;2024-02-28T10:25:44;7.00;56.60
32293;DHT22;43233;48.608;8.838;2024-02-28T10:28:11;7.10;56.60
32293;DHT22;43233;48.608;8.838;2024-02-28T10:30:43;7.20;56.40
32293;DHT22;43233;48.608;8.838;2024-02-28T10:33:13;7.20;56.20
32293;DHT22;43233;48.608;8.838;2024-02-28T10:35:42;7.20;55.40
32293;DHT22;43233;48.608;8.838;2024-02-28T10:38:13;7.10;54.90
32293;DHT22;43233;48.608;8.838;2024-02-28T10:40:41;7.10;55.40
32293;DHT22;43233;48.608;8.838;2024-02-28T10:43:10;7.10;55.20
32293;DHT22;43233;48.608;8.838;2024-02-28T10:45:37;7.10;55.80
32293;DHT22;43233;48.608;8.838;2024-02-28T10:48:06;7.10;56.40
32293;DHT22;43233;48.608;8.838;2024-02-28T10:50:32;7.20;56.20
32293;DHT22;43233;48.608;8.838;2024-02-28T10:53:02;7.30;56.00
32293;DHT22;43233;48.608;8.838;2024-02-28T10:55:40;7.40;56.00
32293;DHT22;43233;48.608;8.838;2024-02-28T10:58:10;7.60;55.30
32293;DHT22;43233;48.608;8.838;2024-02-28T11:00:37;7.80;54.10
32293;DHT22;43233;48.608;8.838;2024-02-28T11:03:04;7.90;53.30
32293;DHT22;43233;48.608;8.838;2024-02-28T11:05:38;8.00;52.50
32293;DHT22;43233;48.608;8.838;2024-02-28T11:08:08;7.90;52.30
32293;DHT22;43233;48.608;8.838;2024-02-28T11:10:34;7.90;52.60
32293;DHT22;43233;48.608;8.838;2024-02-28T11:12:59;7.90;52.00
32293;DHT22;43233;48.608;8.838;2024-02-28T11:15:25;7.90;52.40
32293;DHT22;43233;48.608;8.838;2024-02-28T11:17:54;7.90;51.70
32293;DHT22;43233;48.608;8.838;2024-02-28T11:20:20;7.80;52.60
32293;DHT22;43233;48.608;8.838;2024-02-28T11:22:48;7.80;54.00
32293;DHT22;43233;48.608;8.838;2024-02-28T11:25:13;7.80;54.50
32293;DHT22;43233;48.608;8.838;2024-02-28T11:27:48;7.90;54.20
32293;DHT22;43233;48.608;8.838;2024-02-28T11:30:14;7.90;52.20
32293;DHT22;43233;48.608;8.838;2024-02-28T11:32:41;7.90;53.00
32293;DHT22;43233;48.608;8.838;2024-02-28T11:35:06;7.90;53.40
32293;DHT22;43233;48.608;8.838;2024-02-28T11:37:32;7.90;53.20
32293;DHT22;43233;48.608;8.838;2024-02-28T11:39:59;8.00;53.60
32293;DHT22;43233;48.608;8.838;2024-02-28T11:42:24;8.00;53.70
32293;DHT22;43233;48.608;8.838;2024-02-28T11:44:54;8.00;53.90
32293;DHT22;43233;48.608;8.838;2024-02-28T11:47:23;8.10;53.70
32293;DHT22;43233;48.608;8.838;2024-02-28T11:49:49;8.10;53.50
32293;DHT22;43233;48.608;8.838;2024-02-28T11:52:15;8.10;53.40
32293;DHT22;43233;48.608;8.838;2024-02-28T11:54:41;8.20;51.50
32293;DHT22;43233;48.608;8.838;2024-02-28T11:57:11;8.10;51.80
32293;DHT22;43233;48.608;8.838;2024-02-28T11:59:39;8.10;51.80
32293;DHT22;43233;48.608;8.838;2024-02-28T12:02:12;8.00;52.60
32293;DHT22;43233;48.608;8.838;2024-02-28T12:04:39;8.00;53.70
32293;DHT22;43233;48.608;8.838;2024-02-28T12:07:05;7.90;53.50
32293;DHT22;43233;48.608;8.838;2024-02-28T12:09:30;7.90;53.40
32293;DHT22;43233;48.608;8.838;2024-02-28T12:11:59;8.00;54.20
32293;DHT22;43233;48.608;8.838;2024-02-28T12:14:25;8.00;52.60
32293;DHT22;43233;48.608;8.838;2024-02-28T12:16:50;8.00;52.00
32293;DHT22;43233;48.608;8.838;2024-02-28T12:19:17;7.90;52.40
32293;DHT22;43233;48.608;8.838;2024-02-28T12:21:45;7.80;53.50
32293;DHT22;43233;48.608;8.838;2024-02-28T12:24:11;7.80;54.50
32293;DHT22;43233;48.608;8.838;2024-02-28T12:26:37;7.80;54.70
32293;DHT22;43233;48.608;8.838;2024-02-28T12:29:03;7.80;55.10
32293;DHT22;43233;48.608;8.838;2024-02-28T12:31:29;7.90;54.50
32293;DHT22;43233;48.608;8.838;2024-02-28T12:33:54;7.90;54.30
32293;DHT22;43233;48.608;8.838;2024-02-28T12:36:20;8.00;54.00
32293;DHT22;43233;48.608;8.838;2024-02-28T12:38:46;8.00;54.20
32293;DHT22;43233;48.608;8.838;2024-02-28T12:41:12;8.10;53.40
32293;DHT22;43233;48.608;8.838;2024-02-28T12:43:39;8.10;53.70
32293;DHT22;43233;48.608;8.838;2024-02-28T12:46:07;8.20;53.20
32293;DHT22;43233;48.608;8.838;2024-02-28T12:48:40;8.30;53.10
32293;DHT22;43233;48.608;8.838;2024-02-28T12:51:06;8.30;53.00
32293;DHT22;43233;48.608;8.838;2024-02-28T12:53:34;8.40;52.70
32293;DHT22;43233;48.608;8.838;2024-02-28T12:56:00;8.50;52.10
32293;DHT22;43233;48.608;8.838;2024-02-28T12:58:25;8.60;52.50
32293;DHT22;43233;48.608;8.838;2024-02-28T13:00:51;8.60;51.30
32293;DHT22;43233;48.608;8.838;2024-02-28T13:03:17;8.70;50.90
32293;DHT22;43233;48.608;8.838;2024-02-28T13:05:43;8.70;50.60
32293;DHT22;43233;48.608;8.838;2024-02-28T13:08:09;8.70;50.20
32293;DHT22;43233;48.608;8.838;2024-02-28T13:10:35;8.70;50.40
32293;DHT22;43233;48.608;8.838;2024-02-28T13:13:05;8.70;50.30
32293;DHT22;43233;48.608;8.838;2024-02-28T13:15:31;8.70;50.70
32293;DHT22;43233;48.608;8.838;2024-02-28T13:17:57;8.70;50.80
32293;DHT22;43233;48.608;8.838;2024-02-28T13:20:23;8.60;51.50
32293;DHT22;43233;48.608;8.838;2024-02-28T13:22:48;8.60;51.30
32293;DHT22;43233;48.608;8.838;2024-02-28T13:25:14;8.60;51.40
32293;DHT22;43233;48.608;8.838;2024-02-28T13:27:40;8.60;51.50
32293;DHT22;43233;48.608;8.838;2024-02-28T13:30:06;8.60;51.20
32293;DHT22;43233;48.608;8.838;2024-02-28T13:32:32;8.60;51.00
32293;DHT22;43233;48.608;8.838;2024-02-28T13:34:58;8.50;51.40
32293;DHT22;43233;48.608;8.838;2024-02-28T13:37:25;8.60;51.40
32293;DHT22;43233;48.608;8.838;2024-02-28T13:39:50;8.50;51.50
32293;DHT22;43233;48.608;8.838;2024-02-28T13:42:17;8.50;51.70
32293;DHT22;43233;48.608;8.838;2024-02-28T13:44:46;8.50;51.60
32293;DHT22;43233;48.608;8.838;2024-02-28T13:47:12;8.50;51.90
32293;DHT22;43233;48.608;8.838;2024-02-28T13:49:39;8.50;52.30
32293;DHT22;43233;48.608;8.838;2024-02-28T13:52:05;8.50;51.80
32293;DHT22;43233;48.608;8.838;2024-02-28T13:54:30;8.40;51.90
32293;DHT22;43233;48.608;8.838;2024-02-28T13:56:57;8.40;51.50
32293;DHT22;43233;48.608;8.838;2024-02-28T13:59:23;8.40;52.10
32293;DHT22;43233;48.608;8.838;2024-02-28T14:01:49;8.40;51.70
32293;DHT22;43233;48.608;8.838;2024-02-28T14:04:15;8.40;52.30
32293;DHT22;43233;48.608;8.838;2024-02-28T14:06:41;8.40;52.80
32293;DHT22;43233;48.608;8.838;2024-02-28T14:09:07;8.50;52.70
32293;DHT22;43233;48.608;8.838;2024-02-28T14:11:32;8.50;52.10
32293;DHT22;43233;48.608;8.838;2024-02-28T14:13:58;8.50;52.60
32293;DHT22;43233;48.608;8.838;2024-02-28T14:16:24;8.50;52.50
32293;DHT22;43233;48.608;8.838;2024-02-28T14:18:50;8.40;52.70
32293;DHT22;43233;48.608;8.838;2024-02-28T14:21:16;8.40;53.10
32293;DHT22;43233;48.608;8.838;2024-02-28T14:23:42;8.30;53.30
32293;DHT22;43233;48.608;8.838;2024-02-28T14:26:08;8.30;53.00
32293;DHT22;43233;48.608;8.838;2024-02-28T14:28:33;8.40;52.60
32293;DHT22;43233;48.608;8.838;2024-02-28T14:31:00;8.40;52.60
32293;DHT22;43233;48.608;8.838;2024-02-28T14:33:25;8.30;52.80
32293;DHT22;43233;48.608;8.838;2024-02-28T14:35:51;8.40;52.30
32293;DHT22;43233;48.608;8.838;2024-02-28T14:38:17;8.30;51.90
32293;DHT22;43233;48.608;8.838;2024-02-28T14:40:42;8.20;52.40
32293;DHT22;43233;48.608;8.838;2024-02-28T14:43:08;8.20;52.50
32293;DHT22;43233;48.608;8.838;2024-02-28T14:45:34;8.10;52.80
32293;DHT22;43233;48.608;8.838;2024-02-28T14:48:01;8.10;53.40
32293;DHT22;43233;48.608;8.838;2024-02-28T14:50:27;8.10;53.70
32293;DHT22;43233;48.608;8.838;2024-02-28T14:52:53;8.10;53.30
32293;DHT22;43233;48.608;8.838;2024-02-28T14:55:18;8.10;52.90
32293;DHT22;43233;48.608;8.838;2024-02-28T14:57:44;8.10;52.60
32293;DHT22;43233;48.608;8.838;2024-02-28T15:00:10;8.00;53.00
32293;DHT22;43233;48.608;8.838;2024-02-28T15:02:42;8.00;53.10
32293;DHT22;43233;48.608;8.838;2024-02-28T15:05:08;7.90;53.10
32293;DHT22;43233;48.608;8.838;2024-02-28T15:07:34;7.90;53.40
32293;DHT22;43233;48.608;8.838;2024-02-28T15:10:04;7.90;52.90
32293;DHT22;43233;48.608;8.838;2024-02-28T15:12:30;7.90;53.30
32293;DHT22;43233;48.608;8.838;2024-02-28T15:14:59;7.90;54.40
32293;DHT22;43233;48.608;8.838;2024-02-28T15:17:24;7.80;53.60
32293;DHT22;43233;48.608;8.838;2024-02-28T15:19:50;7.90;53.60
32293;DHT22;43233;48.608;8.838;2024-02-28T15:22:15;7.90;53.30
32293;DHT22;43233;48.608;8.838;2024-02-28T15:24:41;8.00;51.90
32293;DHT22;43233;48.608;8.838;2024-02-28T15:27:07;7.90;51.70
32293;DHT22;43233;48.608;8.838;2024-02-28T15:29:32;7.80;51.40
32293;DHT22;43233;48.608;8.838;2024-02-28T15:31:58;7.70;51.70
32293;DHT22;43233;48.608;8.838;2024-02-28T15:34:24;7.70;52.70
32293;DHT22;43233;48.608;8.838;2024-02-28T15:36:49;7.80;52.10
32293;DHT22;43233;48.608;8.838;2024-02-28T15:39:15;7.90;52.80